createdAt,value
2023-02-27T00:02:00.425Z,4.33
2023-02-27T00:04:28.314Z,4.90
2023-02-27T00:06:57.507Z,4.63
2023-02-27T00:09:25.376Z,4.30
2023-02-27T00:11:53.241Z,4.00
2023-02-27T00:14:21.126Z,4.57
2023-02-27T00:16:49.067Z,4.50
2023-02-27T00:19:17.177Z,4.00
2023-02-27T00:21:45.569Z,4.50
2023-02-27T00:24:14.923Z,4.10
2023-02-27T00:26:42.801Z,4.00
2023-02-27T00:29:11.752Z,4.00
2023-02-27T00:31:39.623Z,3.80
2023-02-27T00:34:07.476Z,4.23
2023-02-27T00:36:37.172Z,3.90
2023-02-27T00:39:05.021Z,4.40
2023-02-27T00:41:34.247Z,3.60
2023-02-27T00:44:02.058Z,3.73
2023-02-27T00:46:29.938Z,5.10
2023-02-27T00:48:57.855Z,3.80
2023-02-27T00:51:27.234Z,4.00
2023-02-27T00:53:55.208Z,4.07
2023-02-27T00:56:23.221Z,3.70
2023-02-27T00:58:52.890Z,3.33
2023-02-27T01:01:23.301Z,3.50
2023-02-27T01:03:54.303Z,3.77
2023-02-27T01:06:22.214Z,3.33
2023-02-27T01:08:50.040Z,3.63
2023-02-27T01:11:17.913Z,3.33
2023-02-27T01:13:46.373Z,3.73
2023-02-27T01:16:15.757Z,3.30
2023-02-27T01:18:43.709Z,2.83
2023-02-27T01:21:11.504Z,2.80
2023-02-27T01:23:39.366Z,3.23
2023-02-27T01:26:07.216Z,3.50
2023-02-27T01:28:35.269Z,3.43
2023-02-27T01:31:03.125Z,3.00
2023-02-27T01:33:34.593Z,3.03
2023-02-27T01:36:02.519Z,3.13
2023-02-27T01:38:31.272Z,3.20
2023-02-27T01:41:01.762Z,3.00
2023-02-27T01:43:29.649Z,2.80
2023-02-27T01:45:59.194Z,2.53
2023-02-27T01:48:29.709Z,2.40
2023-02-27T01:51:01.180Z,2.40
2023-02-27T01:53:30.438Z,4.20
2023-02-27T01:56:00.731Z,2.40
2023-02-27T01:58:28.815Z,2.60
2023-02-27T02:00:56.838Z,2.37
2023-02-27T02:03:29.050Z,2.90
2023-02-27T02:05:59.599Z,2.83
2023-02-27T02:08:30.096Z,2.57
2023-02-27T02:10:59.555Z,2.53
2023-02-27T02:13:27.894Z,2.50
2023-02-27T02:16:05.515Z,2.47
2023-02-27T02:18:41.134Z,2.53
2023-02-27T02:22:00.816Z,2.10
2023-02-27T02:25:04.522Z,2.50
2023-02-27T02:27:42.079Z,2.60
2023-02-27T02:30:45.231Z,2.53
2023-02-27T02:33:46.008Z,2.47
2023-02-27T02:36:40.717Z,2.40
2023-02-27T02:39:21.611Z,2.70
2023-02-27T02:41:59.209Z,2.77
2023-02-27T02:44:35.958Z,2.30
2023-02-27T02:47:06.280Z,2.30
2023-02-27T02:49:37.801Z,2.13
2023-02-27T02:52:10.326Z,2.60
2023-02-27T02:54:43.525Z,2.40
2023-02-27T02:57:15.412Z,2.13
2023-02-27T02:59:48.866Z,2.40
2023-02-27T03:02:19.313Z,2.23
2023-02-27T03:04:50.868Z,2.50
2023-02-27T03:07:24.318Z,2.40
2023-02-27T03:09:55.140Z,2.53
2023-02-27T03:12:24.907Z,1.83
2023-02-27T03:14:57.222Z,1.97
2023-02-27T03:17:28.899Z,2.40
2023-02-27T03:19:59.867Z,2.30
2023-02-27T03:22:31.965Z,2.27
2023-02-27T03:25:02.610Z,1.90
2023-02-27T03:27:33.567Z,2.20
2023-02-27T03:30:05.180Z,1.70
2023-02-27T03:32:38.037Z,2.10
2023-02-27T03:35:07.373Z,2.20
2023-02-27T03:37:46.847Z,3.53
2023-02-27T03:40:22.653Z,2.00
2023-02-27T03:42:55.144Z,1.87
2023-02-27T03:45:45.871Z,2.40
2023-02-27T03:48:14.860Z,1.80
2023-02-27T03:50:43.109Z,1.97
2023-02-27T03:53:18.227Z,2.03
2023-02-27T03:55:47.974Z,2.20
2023-02-27T03:58:15.963Z,1.90
2023-02-27T04:00:43.861Z,1.70
2023-02-27T04:03:12.484Z,1.63
2023-02-27T04:05:40.454Z,2.20
2023-02-27T04:08:39.863Z,1.57
2023-02-27T04:11:19.457Z,1.90
2023-02-27T04:13:59.626Z,1.70
2023-02-27T04:16:53.966Z,1.70
2023-02-27T04:19:42.959Z,1.87
2023-02-27T04:22:18.422Z,1.70
2023-02-27T04:24:53.911Z,1.73
2023-02-27T04:27:31.849Z,1.70
2023-02-27T04:30:06.800Z,1.80
2023-02-27T04:32:39.503Z,1.60
2023-02-27T04:35:09.876Z,1.63
2023-02-27T04:37:45.289Z,1.43
2023-02-27T04:40:16.061Z,1.47
2023-02-27T04:42:47.428Z,1.70
2023-02-27T04:45:19.054Z,1.90
2023-02-27T04:47:51.198Z,1.80
2023-02-27T04:50:23.156Z,1.70
2023-02-27T04:52:54.187Z,1.83
2023-02-27T04:55:24.337Z,1.90
2023-02-27T04:57:57.200Z,2.00
2023-02-27T05:00:26.304Z,1.83
2023-02-27T05:02:57.875Z,1.53
2023-02-27T05:05:31.734Z,1.87
2023-02-27T05:08:03.568Z,1.63
2023-02-27T05:10:34.940Z,1.30
2023-02-27T05:13:08.496Z,1.90
2023-02-27T05:15:38.219Z,1.60
2023-02-27T05:18:08.316Z,1.70
2023-02-27T05:20:44.312Z,1.70
2023-02-27T05:23:17.756Z,1.57
2023-02-27T05:25:50.461Z,1.90
2023-02-27T05:28:22.739Z,1.90
2023-02-27T05:30:54.182Z,1.63
2023-02-27T05:33:25.811Z,1.37
2023-02-27T05:35:56.319Z,1.50
2023-02-27T05:38:27.246Z,1.70
2023-02-27T05:40:58.852Z,1.53
2023-02-27T05:43:29.886Z,1.60
2023-02-27T05:46:02.464Z,1.67
2023-02-27T05:48:33.680Z,1.60
2023-02-27T05:51:01.799Z,1.77
2023-02-27T05:53:33.131Z,1.30
2023-02-27T05:56:03.268Z,1.60
2023-02-27T05:58:36.236Z,1.50
2023-02-27T06:01:05.666Z,1.87
2023-02-27T06:03:35.758Z,1.50
2023-02-27T06:06:05.812Z,1.80
2023-02-27T06:08:33.949Z,1.53
2023-02-27T06:11:01.967Z,1.40
2023-02-27T06:13:29.811Z,1.60
2023-02-27T06:15:58.994Z,1.57
2023-02-27T06:18:26.893Z,1.70
2023-02-27T06:20:54.931Z,1.50
2023-02-27T06:23:22.781Z,1.33
2023-02-27T06:25:50.695Z,1.90
2023-02-27T06:28:21.504Z,1.57
2023-02-27T06:30:49.332Z,1.53
2023-02-27T06:33:18.523Z,1.60
2023-02-27T06:35:48.970Z,1.80
2023-02-27T06:38:16.946Z,1.70
2023-02-27T06:40:44.888Z,1.90
2023-02-27T06:43:12.657Z,1.53
2023-02-27T06:45:40.518Z,1.33
2023-02-27T06:48:08.362Z,1.60
2023-02-27T06:50:37.633Z,1.40
2023-02-27T06:53:06.928Z,1.33
2023-02-27T06:55:34.897Z,1.50
2023-02-27T06:58:02.733Z,1.10
2023-02-27T07:00:30.721Z,1.60
2023-02-27T07:03:00.474Z,1.57
2023-02-27T07:05:28.448Z,1.60
2023-02-27T07:07:58.707Z,1.50
2023-02-27T07:10:26.698Z,1.33
2023-02-27T07:12:55.171Z,1.23
2023-02-27T07:15:23.403Z,1.70
2023-02-27T07:17:51.245Z,1.40
2023-02-27T07:20:19.320Z,1.30
2023-02-27T07:22:47.169Z,2.00
2023-02-27T07:25:16.418Z,1.50
2023-02-27T07:27:46.040Z,1.67
2023-02-27T07:30:14.760Z,1.30
2023-02-27T07:32:42.597Z,1.80
2023-02-27T07:35:11.026Z,1.60
2023-02-27T07:37:39.039Z,1.40
2023-02-27T07:40:09.322Z,1.70
2023-02-27T07:42:38.502Z,1.70
2023-02-27T07:45:07.652Z,1.87
2023-02-27T07:47:35.505Z,1.57
2023-02-27T07:50:04.776Z,1.70
2023-02-27T07:52:32.723Z,1.30
2023-02-27T07:55:00.576Z,1.47
2023-02-27T07:57:28.465Z,1.83
2023-02-27T07:59:57.686Z,1.60
2023-02-27T08:02:25.625Z,1.80
2023-02-27T08:04:53.865Z,1.50
2023-02-27T08:07:21.785Z,1.40
2023-02-27T08:09:49.710Z,1.30
2023-02-27T08:12:17.536Z,1.43
2023-02-27T08:14:45.455Z,1.90
2023-02-27T08:17:14.669Z,1.30
2023-02-27T08:19:42.562Z,1.50
2023-02-27T08:22:10.657Z,1.20
2023-02-27T08:24:40.463Z,1.30
2023-02-27T08:27:08.998Z,1.30
2023-02-27T08:29:37.097Z,1.20
2023-02-27T08:32:05.641Z,1.60
2023-02-27T08:34:34.911Z,1.30
2023-02-27T08:37:02.736Z,1.40
2023-02-27T08:39:30.559Z,1.40
2023-02-27T08:42:00.847Z,1.30
2023-02-27T08:44:28.706Z,1.30
2023-02-27T08:46:56.518Z,1.30
2023-02-27T08:49:25.392Z,1.27
2023-02-27T08:51:54.982Z,1.40
2023-02-27T08:54:22.815Z,1.40
2023-02-27T08:56:50.678Z,1.50
2023-02-27T08:59:18.514Z,1.50
2023-02-27T09:01:46.408Z,1.27
2023-02-27T09:04:14.375Z,1.43
2023-02-27T09:06:42.467Z,1.50
2023-02-27T09:09:11.689Z,1.23
2023-02-27T09:11:39.513Z,2.03
2023-02-27T09:14:07.553Z,1.60
2023-02-27T09:16:35.579Z,1.53
2023-02-27T09:19:03.526Z,1.40
2023-02-27T09:21:31.430Z,1.83
2023-02-27T09:24:07.427Z,1.57
2023-02-27T09:26:47.117Z,1.47
2023-02-27T09:29:15.155Z,1.70
2023-02-27T09:31:43.219Z,1.37
2023-02-27T09:34:11.148Z,1.40
2023-02-27T09:36:39.400Z,1.40
2023-02-27T09:39:09.730Z,1.90
2023-02-27T09:41:51.805Z,1.40
2023-02-27T09:44:46.039Z,1.80
2023-02-27T09:47:18.049Z,1.57
2023-02-27T09:49:59.928Z,1.57
2023-02-27T09:52:28.451Z,1.30
2023-02-27T09:54:56.390Z,1.90
2023-02-27T09:57:38.824Z,1.60
2023-02-27T10:00:10.046Z,1.40
2023-02-27T10:02:47.204Z,1.83
2023-02-27T10:05:24.160Z,1.70
2023-02-27T10:07:57.874Z,1.60
2023-02-27T10:10:31.831Z,1.57
2023-02-27T10:13:38.108Z,1.70
2023-02-27T10:16:07.358Z,1.73
2023-02-27T10:18:40.556Z,1.67
2023-02-27T10:21:13.200Z,1.40
2023-02-27T10:23:43.738Z,1.67
2023-02-27T10:26:15.430Z,1.30
2023-02-27T10:28:44.668Z,1.30
2023-02-27T10:31:17.842Z,1.40
2023-02-27T10:33:48.162Z,1.47
2023-02-27T10:36:30.938Z,1.50
2023-02-27T10:39:01.652Z,1.63
2023-02-27T10:41:30.420Z,1.10
2023-02-27T10:44:01.312Z,1.40
2023-02-27T10:46:30.734Z,1.20
2023-02-27T10:49:01.826Z,1.40
2023-02-27T10:51:31.862Z,1.43
2023-02-27T10:54:26.098Z,1.57
2023-02-27T10:56:55.512Z,1.30
2023-02-27T10:59:27.354Z,1.40
2023-02-27T11:01:56.672Z,1.20
2023-02-27T11:04:27.225Z,1.30
2023-02-27T11:06:55.477Z,1.30
2023-02-27T11:09:25.417Z,1.03
2023-02-27T11:11:53.876Z,1.20
2023-02-27T11:14:28.205Z,1.07
2023-02-27T11:16:57.334Z,1.20
2023-02-27T11:19:27.290Z,1.10
2023-02-27T11:22:04.343Z,1.33
2023-02-27T11:24:32.897Z,1.33
2023-02-27T11:27:03.626Z,0.90
2023-02-27T11:29:33.299Z,1.20
2023-02-27T11:32:04.848Z,0.90
2023-02-27T11:34:36.262Z,0.90
2023-02-27T11:37:06.528Z,1.10
2023-02-27T11:39:38.996Z,0.90
2023-02-27T11:42:17.203Z,0.90
2023-02-27T11:44:54.876Z,0.90
2023-02-27T11:47:27.376Z,1.10
2023-02-27T11:50:31.219Z,1.10
2023-02-27T11:53:08.732Z,1.00
2023-02-27T11:55:37.160Z,1.00
2023-02-27T11:58:12.061Z,0.90
2023-02-27T12:00:45.511Z,0.80
2023-02-27T12:03:19.478Z,0.97
2023-02-27T12:05:49.371Z,1.03
2023-02-27T12:08:19.442Z,0.90
2023-02-27T12:10:52.067Z,0.90
2023-02-27T12:13:23.158Z,0.90
2023-02-27T12:15:58.295Z,0.90
2023-02-27T12:18:29.772Z,0.90
2023-02-27T12:21:01.121Z,1.10
2023-02-27T12:23:34.787Z,0.80
2023-02-27T12:26:05.561Z,0.80
2023-02-27T12:28:47.335Z,0.90
2023-02-27T12:31:33.456Z,1.00
2023-02-27T12:34:06.018Z,1.00
2023-02-27T12:36:33.959Z,1.00
2023-02-27T12:39:04.416Z,0.90
2023-02-27T12:41:37.912Z,0.90
2023-02-27T12:44:20.222Z,1.00
2023-02-27T12:46:52.914Z,1.00
2023-02-27T12:49:30.879Z,1.00
2023-02-27T12:52:05.259Z,0.90
2023-02-27T12:54:50.670Z,1.00
2023-02-27T12:57:38.538Z,0.80
2023-02-27T13:00:15.912Z,0.90
2023-02-27T13:03:03.773Z,1.00
2023-02-27T13:05:36.703Z,1.03
2023-02-27T13:08:18.952Z,1.00
2023-02-27T13:10:49.341Z,0.90
2023-02-27T13:13:24.286Z,0.80
2023-02-27T13:15:56.451Z,0.90
2023-02-27T13:18:40.171Z,0.87
2023-02-27T13:21:13.937Z,1.10
2023-02-27T13:23:58.400Z,1.10
2023-02-27T13:26:28.626Z,0.97
2023-02-27T13:28:57.491Z,1.20
2023-02-27T13:31:34.282Z,1.30
2023-02-27T13:34:12.427Z,1.10
2023-02-27T13:36:42.620Z,1.27
2023-02-27T13:39:38.022Z,1.50
2023-02-27T13:42:06.507Z,0.87
2023-02-27T13:44:43.198Z,1.00
2023-02-27T13:47:42.153Z,1.00
2023-02-27T13:50:47.454Z,0.93
2023-02-27T13:53:19.955Z,1.00
2023-02-27T13:55:47.810Z,1.20
2023-02-27T13:58:21.831Z,1.10
2023-02-27T14:00:58.865Z,1.40
2023-02-27T14:03:30.120Z,1.00
2023-02-27T14:06:02.293Z,1.30
2023-02-27T14:08:36.885Z,1.30
2023-02-27T14:11:17.110Z,1.20
2023-02-27T14:14:05.262Z,1.20
2023-02-27T14:16:52.934Z,1.37
2023-02-27T14:19:59.261Z,1.10
2023-02-27T14:22:39.097Z,1.20
2023-02-27T14:25:17.914Z,1.20
2023-02-27T14:27:57.034Z,1.23
2023-02-27T14:30:31.504Z,1.40
2023-02-27T14:33:05.567Z,2.00
2023-02-27T14:35:34.551Z,1.63
2023-02-27T14:38:07.647Z,1.23
2023-02-27T14:40:42.178Z,1.10
2023-02-27T14:43:17.784Z,1.07
2023-02-27T14:45:45.629Z,1.30
2023-02-27T14:48:25.110Z,1.07
2023-02-27T14:50:56.806Z,0.90
2023-02-27T14:53:27.131Z,1.40
2023-02-27T14:55:57.849Z,1.00
2023-02-27T14:58:26.285Z,1.20
2023-02-27T15:01:05.145Z,1.00
2023-02-27T15:03:39.929Z,1.00
2023-02-27T15:06:15.295Z,1.10
2023-02-27T15:08:44.067Z,1.03
2023-02-27T15:11:18.571Z,1.10
2023-02-27T15:13:47.037Z,1.00
2023-02-27T15:16:35.137Z,1.20
2023-02-27T15:19:12.571Z,0.90
2023-02-27T15:21:43.628Z,0.90
2023-02-27T15:24:40.625Z,1.07
2023-02-27T15:27:18.417Z,1.10
2023-02-27T15:29:50.501Z,1.00
2023-02-27T15:32:28.354Z,1.10
2023-02-27T15:34:56.841Z,1.00
2023-02-27T15:37:27.194Z,1.10
2023-02-27T15:39:55.980Z,1.07
2023-02-27T15:42:28.083Z,1.10
2023-02-27T15:44:56.451Z,1.00
2023-02-27T15:47:26.876Z,1.17
2023-02-27T15:50:00.216Z,1.10
2023-02-27T15:52:30.333Z,1.20
2023-02-27T15:55:02.610Z,0.97
2023-02-27T15:57:33.187Z,1.13
2023-02-27T16:00:01.528Z,0.90
2023-02-27T16:02:31.808Z,0.80
2023-02-27T16:04:59.734Z,0.90
2023-02-27T16:07:30.085Z,1.03
2023-02-27T16:10:10.764Z,1.27
2023-02-27T16:12:40.119Z,1.10
2023-02-27T16:15:21.001Z,0.93
2023-02-27T16:18:00.941Z,0.90
2023-02-27T16:20:38.618Z,1.00
2023-02-27T16:23:08.632Z,1.00
2023-02-27T16:25:36.564Z,1.20
2023-02-27T16:28:05.872Z,1.20
2023-02-27T16:30:33.685Z,1.17
2023-02-27T16:33:02.857Z,1.03
2023-02-27T16:35:30.737Z,1.10
2023-02-27T16:38:03.539Z,1.00
2023-02-27T16:40:31.585Z,1.30
2023-02-27T16:43:01.385Z,1.00
2023-02-27T16:45:31.916Z,1.00
2023-02-27T16:48:01.000Z,1.20
2023-02-27T16:50:30.500Z,1.47
2023-02-27T16:52:59.553Z,1.10
2023-02-27T16:55:27.880Z,1.07
2023-02-27T16:57:56.003Z,0.90
2023-02-27T17:00:26.759Z,1.10
2023-02-27T17:02:55.960Z,1.20
2023-02-27T17:05:24.343Z,1.00
2023-02-27T17:07:52.283Z,1.00
2023-02-27T17:10:24.541Z,1.00
2023-02-27T17:12:52.452Z,0.90
2023-02-27T17:15:20.738Z,1.00
2023-02-27T17:17:48.592Z,0.97
2023-02-27T17:20:18.660Z,1.20
2023-02-27T17:22:46.566Z,1.30
2023-02-27T17:25:14.798Z,0.90
2023-02-27T17:27:44.601Z,0.90
2023-02-27T17:30:13.674Z,1.10
2023-02-27T17:32:41.545Z,0.93
2023-02-27T17:35:11.094Z,0.90
2023-02-27T17:37:40.319Z,1.00
2023-02-27T17:40:09.114Z,1.00
2023-02-27T17:42:37.554Z,1.03
2023-02-27T17:45:06.408Z,1.00
2023-02-27T17:47:34.885Z,1.20
2023-02-27T17:50:04.069Z,1.20
2023-02-27T17:52:31.905Z,0.97
2023-02-27T17:55:01.096Z,1.20
2023-02-27T17:57:28.957Z,1.10
2023-02-27T17:59:57.333Z,1.10
2023-02-27T18:02:25.158Z,1.20
2023-02-27T18:04:53.170Z,1.03
2023-02-27T18:07:21.082Z,0.97
2023-02-27T18:09:48.882Z,1.40
2023-02-27T18:12:18.256Z,1.00
2023-02-27T18:14:46.106Z,1.20
2023-02-27T18:17:13.926Z,1.03
2023-02-27T18:19:42.533Z,1.53
2023-02-27T18:22:10.866Z,1.23
2023-02-27T18:24:38.918Z,1.10
2023-02-27T18:27:06.714Z,1.10
2023-02-27T18:29:36.782Z,1.20
2023-02-27T18:32:04.760Z,1.63
2023-02-27T18:34:32.916Z,1.57
2023-02-27T18:37:03.701Z,1.50
2023-02-27T18:39:31.546Z,1.20
2023-02-27T18:41:59.493Z,1.10
2023-02-27T18:44:27.359Z,1.23
2023-02-27T18:46:56.703Z,0.93
2023-02-27T18:49:25.002Z,1.20
2023-02-27T18:51:52.856Z,1.30
2023-02-27T18:54:20.815Z,1.60
2023-02-27T18:56:51.697Z,1.10
2023-02-27T18:59:19.500Z,0.97
2023-02-27T19:01:49.816Z,1.10
2023-02-27T19:04:19.014Z,1.07
2023-02-27T19:06:46.807Z,1.13
2023-02-27T19:09:16.536Z,1.20
2023-02-27T19:11:46.065Z,1.20
2023-02-27T19:14:15.979Z,1.50
2023-02-27T19:16:44.290Z,1.50
2023-02-27T19:19:12.265Z,1.53
2023-02-27T19:21:41.527Z,1.50
2023-02-27T19:24:10.144Z,1.13
2023-02-27T19:26:38.096Z,1.30
2023-02-27T19:29:07.217Z,1.00
2023-02-27T19:31:35.800Z,1.20
2023-02-27T19:34:03.726Z,0.93
2023-02-27T19:36:32.046Z,1.13
2023-02-27T19:39:01.569Z,1.10
2023-02-27T19:41:31.327Z,1.03
2023-02-27T19:44:04.562Z,1.20
2023-02-27T19:46:35.508Z,1.07
2023-02-27T19:49:06.095Z,1.10
2023-02-27T19:51:37.171Z,1.03
2023-02-27T19:54:07.376Z,1.10
2023-02-27T19:56:35.537Z,1.40
2023-02-27T19:59:03.616Z,1.50
2023-02-27T20:01:33.265Z,1.50
2023-02-27T20:04:01.970Z,1.40
2023-02-27T20:06:32.991Z,1.60
2023-02-27T20:09:01.072Z,1.20
2023-02-27T20:11:32.635Z,1.30
2023-02-27T20:14:01.144Z,1.20
2023-02-27T20:16:30.771Z,1.30
2023-02-27T20:18:58.938Z,1.33
2023-02-27T20:21:28.597Z,1.30
2023-02-27T20:23:56.889Z,1.53
2023-02-27T20:26:27.051Z,1.60
2023-02-27T20:28:58.333Z,1.63
2023-02-27T20:31:28.805Z,1.50
2023-02-27T20:34:00.260Z,1.07
2023-02-27T20:36:28.906Z,1.27
2023-02-27T20:38:56.934Z,1.27
2023-02-27T20:41:28.240Z,1.30
2023-02-27T20:43:59.358Z,1.23
2023-02-27T20:46:29.136Z,1.50
2023-02-27T20:48:57.781Z,1.30
2023-02-27T20:51:27.308Z,1.40
2023-02-27T20:53:57.144Z,1.27
2023-02-27T20:56:27.051Z,1.60
2023-02-27T20:58:54.876Z,1.60
2023-02-27T21:01:24.324Z,1.37
2023-02-27T21:03:55.167Z,1.27
2023-02-27T21:06:23.826Z,1.23
2023-02-27T21:08:53.927Z,1.73
2023-02-27T21:11:24.392Z,1.80
2023-02-27T21:13:52.234Z,1.93
2023-02-27T21:16:20.392Z,1.60
2023-02-27T21:18:51.500Z,1.60
2023-02-27T21:21:22.814Z,1.67
2023-02-27T21:23:51.007Z,1.50
2023-02-27T21:26:21.340Z,1.20
2023-02-27T21:28:52.229Z,1.67
2023-02-27T21:31:22.509Z,1.30
2023-02-27T21:33:52.541Z,1.40
2023-02-27T21:36:26.105Z,1.47
2023-02-27T21:38:57.298Z,1.30
2023-02-27T21:41:25.182Z,1.43
2023-02-27T21:43:52.999Z,1.80
2023-02-27T21:46:21.703Z,1.80
2023-02-27T21:48:50.949Z,2.40
2023-02-27T21:51:32.961Z,1.80
2023-02-27T21:54:06.737Z,1.50
2023-02-27T21:56:35.014Z,1.73
2023-02-27T21:59:03.317Z,1.60
2023-02-27T22:01:32.002Z,1.50
2023-02-27T22:04:02.305Z,1.50
2023-02-27T22:06:32.505Z,1.60
2023-02-27T22:09:02.646Z,1.50
2023-02-27T22:11:30.990Z,1.53
2023-02-27T22:13:59.039Z,2.10
2023-02-27T22:16:29.966Z,1.53
2023-02-27T22:18:57.853Z,1.50
2023-02-27T22:21:28.943Z,1.60
2023-02-27T22:23:57.970Z,1.60
2023-02-27T22:26:28.359Z,1.20
2023-02-27T22:28:57.250Z,1.70
2023-02-27T22:31:26.723Z,1.50
2023-02-27T22:33:56.471Z,1.47
2023-02-27T22:36:30.193Z,1.50
2023-02-27T22:38:58.307Z,2.00
2023-02-27T22:41:28.609Z,1.57
2023-02-27T22:43:57.254Z,1.50
2023-02-27T22:46:26.874Z,1.80
2023-02-27T22:48:56.198Z,1.97
2023-02-27T22:51:25.414Z,1.90
2023-02-27T22:53:56.000Z,2.10
2023-02-27T22:56:24.106Z,1.60
2023-02-27T22:58:52.190Z,1.87
2023-02-27T23:01:21.999Z,1.73
2023-02-27T23:03:51.225Z,1.60
2023-02-27T23:06:22.546Z,1.50
2023-02-27T23:08:50.555Z,1.83
2023-02-27T23:11:20.746Z,1.83
2023-02-27T23:13:48.931Z,2.27
2023-02-27T23:16:17.558Z,1.80
2023-02-27T23:18:47.054Z,1.80
2023-02-27T23:21:15.904Z,2.00
2023-02-27T23:23:44.104Z,1.57
2023-02-27T23:26:12.640Z,2.00
2023-02-27T23:28:41.852Z,1.83
2023-02-27T23:31:10.334Z,1.90
2023-02-27T23:33:38.379Z,1.80
2023-02-27T23:36:07.163Z,2.00
2023-02-27T23:38:35.010Z,2.10
2023-02-27T23:41:07.387Z,1.70
2023-02-27T23:43:53.146Z,1.97
2023-02-27T23:46:22.608Z,2.20
2023-02-27T23:48:50.469Z,1.70
2023-02-27T23:51:18.304Z,1.80
2023-02-27T23:53:46.165Z,1.80
2023-02-27T23:56:15.629Z,1.93
2023-02-27T23:58:43.876Z,1.80
